sensor_id;sensor_type;location;lat;lon;timestamp;P1;durP1;ratioP1;P2;durP2;ratioP2
69937;SDS011;57248;47.320;15.998;2023-01-26T00:00:40;31.13;;;8.87;;
69937;SDS011;57248;47.320;15.998;2023-01-26T00:03:12;29.00;;;8.50;;
69937;SDS011;57248;47.320;15.998;2023-01-26T00:05:45;25.80;;;8.35;;
69937;SDS011;57248;47.320;15.998;2023-01-26T00:08:17;27.77;;;7.70;;
69937;SDS011;57248;47.320;15.998;2023-01-26T00:10:49;28.92;;;8.40;;
69937;SDS011;57248;47.320;15.998;2023-01-26T00:13:21;28.57;;;7.53;;
69937;SDS011;57248;47.320;15.998;2023-01-26T00:15:56;25.85;;;7.57;;
69937;SDS011;57248;47.320;15.998;2023-01-26T00:18:28;27.63;;;8.02;;
69937;SDS011;57248;47.320;15.998;2023-01-26T00:21:01;23.67;;;7.53;;
69937;SDS011;57248;47.320;15.998;2023-01-26T00:23:33;26.02;;;7.53;;
69937;SDS011;57248;47.320;15.998;2023-01-26T00:26:06;25.07;;;7.50;;
69937;SDS011;57248;47.320;15.998;2023-01-26T00:28:40;24.38;;;8.07;;
69937;SDS011;57248;47.320;15.998;2023-01-26T00:31:22;26.90;;;7.68;;
69937;SDS011;57248;47.320;15.998;2023-01-26T00:33:57;19.10;;;5.07;;
69937;SDS011;57248;47.320;15.998;2023-01-26T00:36:30;23.60;;;6.82;;
69937;SDS011;57248;47.320;15.998;2023-01-26T00:39:02;22.50;;;6.10;;
69937;SDS011;57248;47.320;15.998;2023-01-26T00:41:34;27.80;;;8.00;;
69937;SDS011;57248;47.320;15.998;2023-01-26T00:44:25;28.00;;;8.57;;
69937;SDS011;57248;47.320;15.998;2023-01-26T00:46:57;26.80;;;7.80;;
69937;SDS011;57248;47.320;15.998;2023-01-26T00:49:29;30.02;;;7.82;;
69937;SDS011;57248;47.320;15.998;2023-01-26T00:51:54;28.80;;;7.93;;
69937;SDS011;57248;47.320;15.998;2023-01-26T00:54:26;28.85;;;8.07;;
69937;SDS011;57248;47.320;15.998;2023-01-26T00:57:07;30.07;;;8.03;;
69937;SDS011;57248;47.320;15.998;2023-01-26T00:59:40;30.08;;;8.60;;
69937;SDS011;57248;47.320;15.998;2023-01-26T01:02:12;26.17;;;7.57;;
69937;SDS011;57248;47.320;15.998;2023-01-26T01:04:44;22.27;;;7.15;;
69937;SDS011;57248;47.320;15.998;2023-01-26T01:07:17;24.85;;;7.47;;
69937;SDS011;57248;47.320;15.998;2023-01-26T01:09:49;26.83;;;8.27;;
69937;SDS011;57248;47.320;15.998;2023-01-26T01:12:21;25.08;;;7.15;;
69937;SDS011;57248;47.320;15.998;2023-01-26T01:14:53;22.63;;;7.35;;
69937;SDS011;57248;47.320;15.998;2023-01-26T01:17:25;24.98;;;7.60;;
69937;SDS011;57248;47.320;15.998;2023-01-26T01:19:57;25.27;;;7.32;;
69937;SDS011;57248;47.320;15.998;2023-01-26T01:22:23;22.40;;;7.00;;
69937;SDS011;57248;47.320;15.998;2023-01-26T01:24:56;25.08;;;7.70;;
69937;SDS011;57248;47.320;15.998;2023-01-26T01:27:28;25.10;;;7.82;;
69937;SDS011;57248;47.320;15.998;2023-01-26T01:30:00;26.90;;;8.10;;
69937;SDS011;57248;47.320;15.998;2023-01-26T01:32:33;22.50;;;7.00;;
69937;SDS011;57248;47.320;15.998;2023-01-26T01:35:00;25.40;;;7.87;;
69937;SDS011;57248;47.320;15.998;2023-01-26T01:37:32;24.88;;;7.47;;
69937;SDS011;57248;47.320;15.998;2023-01-26T01:40:04;26.15;;;7.65;;
69937;SDS011;57248;47.320;15.998;2023-01-26T01:42:36;25.88;;;7.07;;
69937;SDS011;57248;47.320;15.998;2023-01-26T01:48:09;27.57;;;8.00;;
69937;SDS011;57248;47.320;15.998;2023-01-26T01:50:46;26.80;;;7.30;;
69937;SDS011;57248;47.320;15.998;2023-01-26T01:53:20;26.05;;;8.30;;
69937;SDS011;57248;47.320;15.998;2023-01-26T01:55:59;23.10;;;7.97;;
69937;SDS011;57248;47.320;15.998;2023-01-26T01:58:41;29.33;;;8.45;;
69937;SDS011;57248;47.320;15.998;2023-01-26T02:01:14;26.60;;;8.63;;
69937;SDS011;57248;47.320;15.998;2023-01-26T02:03:46;30.13;;;8.98;;
69937;SDS011;57248;47.320;15.998;2023-01-26T02:06:16;26.30;;;7.90;;
69937;SDS011;57248;47.320;15.998;2023-01-26T02:09:05;26.75;;;8.43;;
69937;SDS011;57248;47.320;15.998;2023-01-26T02:11:41;24.17;;;8.00;;
69937;SDS011;57248;47.320;15.998;2023-01-26T02:14:15;26.83;;;8.27;;
69937;SDS011;57248;47.320;15.998;2023-01-26T02:16:47;28.33;;;8.73;;
69937;SDS011;57248;47.320;15.998;2023-01-26T02:19:27;29.23;;;8.30;;
69937;SDS011;57248;47.320;15.998;2023-01-26T02:22:11;31.58;;;8.95;;
69937;SDS011;57248;47.320;15.998;2023-01-26T02:24:54;25.83;;;7.40;;
69937;SDS011;57248;47.320;15.998;2023-01-26T02:27:34;30.97;;;9.47;;
69937;SDS011;57248;47.320;15.998;2023-01-26T02:30:00;29.15;;;9.23;;
69937;SDS011;57248;47.320;15.998;2023-01-26T02:32:34;26.27;;;7.47;;
69937;SDS011;57248;47.320;15.998;2023-01-26T02:35:06;31.13;;;8.73;;
69937;SDS011;57248;47.320;15.998;2023-01-26T02:37:38;31.40;;;8.55;;
69937;SDS011;57248;47.320;15.998;2023-01-26T02:42:52;26.83;;;7.88;;
69937;SDS011;57248;47.320;15.998;2023-01-26T02:45:25;26.25;;;8.50;;
69937;SDS011;57248;47.320;15.998;2023-01-26T02:47:58;29.88;;;8.88;;
69937;SDS011;57248;47.320;15.998;2023-01-26T02:50:35;26.15;;;7.57;;
69937;SDS011;57248;47.320;15.998;2023-01-26T02:53:07;28.73;;;8.73;;
69937;SDS011;57248;47.320;15.998;2023-01-26T02:55:46;26.92;;;8.55;;
69937;SDS011;57248;47.320;15.998;2023-01-26T02:58:18;34.17;;;9.35;;
69937;SDS011;57248;47.320;15.998;2023-01-26T03:00:50;35.25;;;9.05;;
69937;SDS011;57248;47.320;15.998;2023-01-26T03:03:22;31.50;;;9.90;;
69937;SDS011;57248;47.320;15.998;2023-01-26T03:05:56;28.40;;;8.10;;
69937;SDS011;57248;47.320;15.998;2023-01-26T03:08:30;30.77;;;9.88;;
69937;SDS011;57248;47.320;15.998;2023-01-26T03:11:02;31.20;;;8.63;;
69937;SDS011;57248;47.320;15.998;2023-01-26T03:13:28;32.80;;;9.52;;
69937;SDS011;57248;47.320;15.998;2023-01-26T03:16:00;23.35;;;6.82;;
69937;SDS011;57248;47.320;15.998;2023-01-26T03:18:37;30.70;;;9.10;;
69937;SDS011;57248;47.320;15.998;2023-01-26T03:21:28;34.17;;;9.02;;
69937;SDS011;57248;47.320;15.998;2023-01-26T03:24:19;30.35;;;9.30;;
69937;SDS011;57248;47.320;15.998;2023-01-26T03:27:10;29.40;;;9.23;;
69937;SDS011;57248;47.320;15.998;2023-01-26T03:30:01;32.33;;;9.82;;
69937;SDS011;57248;47.320;15.998;2023-01-26T03:32:26;33.07;;;10.10;;
69937;SDS011;57248;47.320;15.998;2023-01-26T03:35:00;36.22;;;10.77;;
69937;SDS011;57248;47.320;15.998;2023-01-26T03:37:25;34.57;;;10.57;;
69937;SDS011;57248;47.320;15.998;2023-01-26T03:40:05;32.55;;;9.75;;
69937;SDS011;57248;47.320;15.998;2023-01-26T03:42:56;35.25;;;10.02;;
69937;SDS011;57248;47.320;15.998;2023-01-26T03:45:47;35.42;;;10.98;;
69937;SDS011;57248;47.320;15.998;2023-01-26T03:48:38;32.73;;;10.00;;
69937;SDS011;57248;47.320;15.998;2023-01-26T03:51:29;39.38;;;9.98;;
69937;SDS011;57248;47.320;15.998;2023-01-26T03:54:19;36.00;;;10.15;;
69937;SDS011;57248;47.320;15.998;2023-01-26T03:57:16;37.03;;;10.90;;
69937;SDS011;57248;47.320;15.998;2023-01-26T03:59:48;34.33;;;10.05;;
69937;SDS011;57248;47.320;15.998;2023-01-26T04:02:21;36.03;;;10.67;;
69937;SDS011;57248;47.320;15.998;2023-01-26T04:05:12;32.00;;;10.52;;
69937;SDS011;57248;47.320;15.998;2023-01-26T04:08:03;36.33;;;10.40;;
69937;SDS011;57248;47.320;15.998;2023-01-26T04:10:57;34.40;;;9.93;;
69937;SDS011;57248;47.320;15.998;2023-01-26T04:13:29;38.95;;;9.95;;
69937;SDS011;57248;47.320;15.998;2023-01-26T04:16:26;42.10;;;10.10;;
69937;SDS011;57248;47.320;15.998;2023-01-26T04:19:17;30.60;;;9.35;;
69937;SDS011;57248;47.320;15.998;2023-01-26T04:22:08;33.72;;;9.80;;
69937;SDS011;57248;47.320;15.998;2023-01-26T04:24:41;35.50;;;10.32;;
69937;SDS011;57248;47.320;15.998;2023-01-26T04:27:14;31.75;;;8.85;;
69937;SDS011;57248;47.320;15.998;2023-01-26T04:29:46;37.80;;;9.30;;
69937;SDS011;57248;47.320;15.998;2023-01-26T04:32:18;39.05;;;10.07;;
69937;SDS011;57248;47.320;15.998;2023-01-26T04:34:50;39.25;;;10.27;;
69937;SDS011;57248;47.320;15.998;2023-01-26T04:37:24;42.88;;;10.70;;
69937;SDS011;57248;47.320;15.998;2023-01-26T04:39:56;39.97;;;11.10;;
69937;SDS011;57248;47.320;15.998;2023-01-26T04:42:29;35.10;;;10.33;;
69937;SDS011;57248;47.320;15.998;2023-01-26T04:45:03;40.65;;;10.05;;
69937;SDS011;57248;47.320;15.998;2023-01-26T04:47:36;41.70;;;11.27;;
69937;SDS011;57248;47.320;15.998;2023-01-26T04:50:10;43.05;;;10.68;;
69937;SDS011;57248;47.320;15.998;2023-01-26T04:52:35;42.03;;;10.90;;
69937;SDS011;57248;47.320;15.998;2023-01-26T04:55:14;43.45;;;10.88;;
69937;SDS011;57248;47.320;15.998;2023-01-26T04:57:46;33.55;;;9.07;;
69937;SDS011;57248;47.320;15.998;2023-01-26T05:00:18;43.37;;;11.43;;
69937;SDS011;57248;47.320;15.998;2023-01-26T05:02:52;40.80;;;11.10;;
69937;SDS011;57248;47.320;15.998;2023-01-26T05:05:24;48.53;;;12.30;;
69937;SDS011;57248;47.320;15.998;2023-01-26T05:07:56;39.17;;;10.48;;
69937;SDS011;57248;47.320;15.998;2023-01-26T05:10:30;44.30;;;13.52;;
69937;SDS011;57248;47.320;15.998;2023-01-26T05:13:16;39.60;;;11.10;;
69937;SDS011;57248;47.320;15.998;2023-01-26T05:16:07;44.88;;;10.98;;
69937;SDS011;57248;47.320;15.998;2023-01-26T05:18:58;51.00;;;13.02;;
69937;SDS011;57248;47.320;15.998;2023-01-26T05:21:57;37.78;;;9.95;;
69937;SDS011;57248;47.320;15.998;2023-01-26T05:24:32;47.10;;;11.38;;
69937;SDS011;57248;47.320;15.998;2023-01-26T05:27:17;44.73;;;11.57;;
69937;SDS011;57248;47.320;15.998;2023-01-26T05:29:56;43.03;;;11.45;;
69937;SDS011;57248;47.320;15.998;2023-01-26T05:32:33;43.20;;;11.48;;
69937;SDS011;57248;47.320;15.998;2023-01-26T05:35:06;47.58;;;10.93;;
69937;SDS011;57248;47.320;15.998;2023-01-26T05:37:39;49.22;;;12.35;;
69937;SDS011;57248;47.320;15.998;2023-01-26T05:40:07;38.43;;;12.90;;
69937;SDS011;57248;47.320;15.998;2023-01-26T05:42:41;45.45;;;11.23;;
69937;SDS011;57248;47.320;15.998;2023-01-26T05:45:21;47.00;;;12.32;;
69937;SDS011;57248;47.320;15.998;2023-01-26T05:47:57;40.72;;;11.40;;
69937;SDS011;57248;47.320;15.998;2023-01-26T05:50:30;47.47;;;11.90;;
69937;SDS011;57248;47.320;15.998;2023-01-26T05:53:11;39.00;;;9.63;;
69937;SDS011;57248;47.320;15.998;2023-01-26T05:55:44;40.78;;;10.88;;
69937;SDS011;57248;47.320;15.998;2023-01-26T05:58:25;38.30;;;11.65;;
69937;SDS011;57248;47.320;15.998;2023-01-26T06:01:02;43.72;;;11.35;;
69937;SDS011;57248;47.320;15.998;2023-01-26T06:03:43;43.40;;;11.32;;
69937;SDS011;57248;47.320;15.998;2023-01-26T06:06:15;41.43;;;11.20;;
69937;SDS011;57248;47.320;15.998;2023-01-26T06:08:51;39.45;;;11.07;;
69937;SDS011;57248;47.320;15.998;2023-01-26T06:11:43;42.67;;;12.02;;
69937;SDS011;57248;47.320;15.998;2023-01-26T06:14:28;37.83;;;11.15;;
69937;SDS011;57248;47.320;15.998;2023-01-26T06:17:00;44.40;;;11.93;;
69937;SDS011;57248;47.320;15.998;2023-01-26T06:19:32;40.70;;;11.30;;
69937;SDS011;57248;47.320;15.998;2023-01-26T06:22:07;43.88;;;12.20;;
69937;SDS011;57248;47.320;15.998;2023-01-26T06:24:44;50.70;;;15.05;;
69937;SDS011;57248;47.320;15.998;2023-01-26T06:27:18;42.95;;;12.80;;
69937;SDS011;57248;47.320;15.998;2023-01-26T06:29:51;40.20;;;11.85;;
69937;SDS011;57248;47.320;15.998;2023-01-26T06:32:24;36.37;;;9.13;;
69937;SDS011;57248;47.320;15.998;2023-01-26T06:34:52;38.92;;;11.60;;
69937;SDS011;57248;47.320;15.998;2023-01-26T06:37:25;40.97;;;12.35;;
69937;SDS011;57248;47.320;15.998;2023-01-26T06:39:57;39.03;;;11.98;;
69937;SDS011;57248;47.320;15.998;2023-01-26T06:42:29;39.22;;;12.52;;
69937;SDS011;57248;47.320;15.998;2023-01-26T06:45:01;38.80;;;11.10;;
69937;SDS011;57248;47.320;15.998;2023-01-26T06:47:34;47.53;;;17.38;;
69937;SDS011;57248;47.320;15.998;2023-01-26T06:49:59;67.37;;;19.73;;
69937;SDS011;57248;47.320;15.998;2023-01-26T06:52:32;60.55;;;17.42;;
69937;SDS011;57248;47.320;15.998;2023-01-26T06:55:33;98.18;;;28.13;;
69937;SDS011;57248;47.320;15.998;2023-01-26T06:58:34;50.97;;;16.60;;
69937;SDS011;57248;47.320;15.998;2023-01-26T07:01:06;42.60;;;12.48;;
69937;SDS011;57248;47.320;15.998;2023-01-26T07:03:38;37.87;;;11.97;;
69937;SDS011;57248;47.320;15.998;2023-01-26T07:06:22;41.10;;;12.18;;
69937;SDS011;57248;47.320;15.998;2023-01-26T07:09:29;35.58;;;10.63;;
69937;SDS011;57248;47.320;15.998;2023-01-26T07:12:02;33.30;;;10.27;;
69937;SDS011;57248;47.320;15.998;2023-01-26T07:14:35;34.42;;;10.02;;
69937;SDS011;57248;47.320;15.998;2023-01-26T07:17:00;33.63;;;9.30;;
69937;SDS011;57248;47.320;15.998;2023-01-26T07:19:33;30.30;;;9.07;;
69937;SDS011;57248;47.320;15.998;2023-01-26T07:22:05;33.90;;;9.77;;
69937;SDS011;57248;47.320;15.998;2023-01-26T07:24:37;29.20;;;8.68;;
69937;SDS011;57248;47.320;15.998;2023-01-26T07:27:09;30.30;;;8.82;;
69937;SDS011;57248;47.320;15.998;2023-01-26T07:29:41;31.05;;;8.90;;
69937;SDS011;57248;47.320;15.998;2023-01-26T07:32:13;29.20;;;9.02;;
69937;SDS011;57248;47.320;15.998;2023-01-26T07:34:45;34.40;;;9.50;;
69937;SDS011;57248;47.320;15.998;2023-01-26T07:37:18;32.25;;;9.55;;
69937;SDS011;57248;47.320;15.998;2023-01-26T07:39:50;29.17;;;8.80;;
69937;SDS011;57248;47.320;15.998;2023-01-26T07:42:23;29.95;;;8.85;;
69937;SDS011;57248;47.320;15.998;2023-01-26T07:45:13;23.92;;;7.57;;
69937;SDS011;57248;47.320;15.998;2023-01-26T07:47:48;29.53;;;8.63;;
69937;SDS011;57248;47.320;15.998;2023-01-26T07:50:20;27.33;;;7.85;;
69937;SDS011;57248;47.320;15.998;2023-01-26T07:52:52;26.58;;;8.00;;
69937;SDS011;57248;47.320;15.998;2023-01-26T07:55:24;29.48;;;9.18;;
69937;SDS011;57248;47.320;15.998;2023-01-26T07:58:10;27.00;;;8.18;;
69937;SDS011;57248;47.320;15.998;2023-01-26T08:00:42;28.33;;;8.50;;
69937;SDS011;57248;47.320;15.998;2023-01-26T08:03:10;28.70;;;8.32;;
69937;SDS011;57248;47.320;15.998;2023-01-26T08:05:43;27.05;;;8.68;;
69937;SDS011;57248;47.320;15.998;2023-01-26T08:08:15;28.80;;;8.13;;
69937;SDS011;57248;47.320;15.998;2023-01-26T08:10:47;25.95;;;8.50;;
69937;SDS011;57248;47.320;15.998;2023-01-26T08:13:19;30.03;;;8.63;;
69937;SDS011;57248;47.320;15.998;2023-01-26T08:15:51;28.30;;;8.23;;
69937;SDS011;57248;47.320;15.998;2023-01-26T08:18:23;27.15;;;8.77;;
69937;SDS011;57248;47.320;15.998;2023-01-26T08:20:55;27.27;;;8.50;;
69937;SDS011;57248;47.320;15.998;2023-01-26T08:23:27;28.88;;;8.45;;
69937;SDS011;57248;47.320;15.998;2023-01-26T08:26:00;27.53;;;8.10;;
69937;SDS011;57248;47.320;15.998;2023-01-26T08:28:33;28.48;;;7.93;;
69937;SDS011;57248;47.320;15.998;2023-01-26T08:31:07;32.13;;;10.45;;
69937;SDS011;57248;47.320;15.998;2023-01-26T08:33:44;24.05;;;8.40;;
69937;SDS011;57248;47.320;15.998;2023-01-26T08:36:18;31.38;;;9.60;;
69937;SDS011;57248;47.320;15.998;2023-01-26T08:38:51;48.57;;;21.23;;
69937;SDS011;57248;47.320;15.998;2023-01-26T08:41:24;36.17;;;12.25;;
69937;SDS011;57248;47.320;15.998;2023-01-26T08:43:56;25.92;;;8.85;;
69937;SDS011;57248;47.320;15.998;2023-01-26T08:46:30;27.98;;;9.55;;
69937;SDS011;57248;47.320;15.998;2023-01-26T08:49:02;27.52;;;9.40;;
69937;SDS011;57248;47.320;15.998;2023-01-26T08:51:34;27.20;;;9.47;;
69937;SDS011;57248;47.320;15.998;2023-01-26T08:54:06;29.15;;;9.68;;
69937;SDS011;57248;47.320;15.998;2023-01-26T08:56:52;23.80;;;8.15;;
69937;SDS011;57248;47.320;15.998;2023-01-26T08:59:26;26.10;;;7.80;;
69937;SDS011;57248;47.320;15.998;2023-01-26T09:01:58;32.92;;;11.02;;
69937;SDS011;57248;47.320;15.998;2023-01-26T09:04:30;31.57;;;10.33;;
69937;SDS011;57248;47.320;15.998;2023-01-26T09:07:02;44.95;;;17.10;;
69937;SDS011;57248;47.320;15.998;2023-01-26T09:09:28;54.65;;;28.33;;
69937;SDS011;57248;47.320;15.998;2023-01-26T09:12:00;30.90;;;10.18;;
69937;SDS011;57248;47.320;15.998;2023-01-26T09:14:32;25.83;;;8.50;;
69937;SDS011;57248;47.320;15.998;2023-01-26T09:17:04;29.90;;;9.87;;
69937;SDS011;57248;47.320;15.998;2023-01-26T09:19:36;28.00;;;9.23;;
69937;SDS011;57248;47.320;15.998;2023-01-26T09:22:09;29.17;;;9.02;;
69937;SDS011;57248;47.320;15.998;2023-01-26T09:24:41;25.55;;;8.00;;
69937;SDS011;57248;47.320;15.998;2023-01-26T09:27:14;28.60;;;9.45;;
69937;SDS011;57248;47.320;15.998;2023-01-26T09:29:46;28.47;;;8.40;;
69937;SDS011;57248;47.320;15.998;2023-01-26T09:32:19;30.27;;;9.77;;
69937;SDS011;57248;47.320;15.998;2023-01-26T09:34:51;30.70;;;8.82;;
69937;SDS011;57248;47.320;15.998;2023-01-26T09:37:24;31.10;;;10.38;;
69937;SDS011;57248;47.320;15.998;2023-01-26T09:39:56;30.02;;;10.48;;
69937;SDS011;57248;47.320;15.998;2023-01-26T09:45:23;25.17;;;8.77;;
69937;SDS011;57248;47.320;15.998;2023-01-26T09:51:10;24.95;;;7.40;;
69937;SDS011;57248;47.320;15.998;2023-01-26T09:54:02;29.00;;;9.05;;
69937;SDS011;57248;47.320;15.998;2023-01-26T09:56:54;24.13;;;9.17;;
69937;SDS011;57248;47.320;15.998;2023-01-26T10:02:30;24.83;;;8.52;;
69937;SDS011;57248;47.320;15.998;2023-01-26T10:05:27;25.88;;;9.05;;
69937;SDS011;57248;47.320;15.998;2023-01-26T10:08:10;26.77;;;8.90;;
69937;SDS011;57248;47.320;15.998;2023-01-26T10:10:46;25.40;;;8.50;;
69937;SDS011;57248;47.320;15.998;2023-01-26T10:13:20;27.95;;;8.52;;
69937;SDS011;57248;47.320;15.998;2023-01-26T10:15:48;27.38;;;9.25;;
69937;SDS011;57248;47.320;15.998;2023-01-26T10:18:38;23.63;;;8.32;;
69937;SDS011;57248;47.320;15.998;2023-01-26T10:21:21;21.95;;;7.38;;
69937;SDS011;57248;47.320;15.998;2023-01-26T10:23:56;22.87;;;8.07;;
69937;SDS011;57248;47.320;15.998;2023-01-26T10:26:31;24.95;;;8.27;;
69937;SDS011;57248;47.320;15.998;2023-01-26T10:29:05;27.35;;;9.90;;
69937;SDS011;57248;47.320;15.998;2023-01-26T10:31:37;27.65;;;9.55;;
69937;SDS011;57248;47.320;15.998;2023-01-26T10:34:12;25.83;;;9.18;;
69937;SDS011;57248;47.320;15.998;2023-01-26T10:36:48;28.67;;;9.83;;
69937;SDS011;57248;47.320;15.998;2023-01-26T10:39:20;23.25;;;8.25;;
69937;SDS011;57248;47.320;15.998;2023-01-26T10:41:56;26.52;;;8.52;;
69937;SDS011;57248;47.320;15.998;2023-01-26T10:44:33;21.55;;;6.65;;
69937;SDS011;57248;47.320;15.998;2023-01-26T10:47:14;28.65;;;10.10;;
69937;SDS011;57248;47.320;15.998;2023-01-26T10:49:47;29.10;;;11.00;;
69937;SDS011;57248;47.320;15.998;2023-01-26T10:52:20;25.52;;;8.35;;
69937;SDS011;57248;47.320;15.998;2023-01-26T10:55:10;25.70;;;8.52;;
69937;SDS011;57248;47.320;15.998;2023-01-26T10:57:43;25.75;;;8.95;;
69937;SDS011;57248;47.320;15.998;2023-01-26T11:00:31;33.50;;;11.27;;
69937;SDS011;57248;47.320;15.998;2023-01-26T11:05:57;27.05;;;9.15;;
69937;SDS011;57248;47.320;15.998;2023-01-26T11:08:37;27.65;;;10.57;;
69937;SDS011;57248;47.320;15.998;2023-01-26T11:11:22;20.67;;;6.95;;
69937;SDS011;57248;47.320;15.998;2023-01-26T11:14:17;31.05;;;11.15;;
69937;SDS011;57248;47.320;15.998;2023-01-26T11:16:55;24.93;;;7.93;;
69937;SDS011;57248;47.320;15.998;2023-01-26T11:19:59;34.15;;;13.50;;
69937;SDS011;57248;47.320;15.998;2023-01-26T11:22:42;22.08;;;7.60;;
69937;SDS011;57248;47.320;15.998;2023-01-26T11:48:58;25.10;;;8.02;;
69937;SDS011;57248;47.320;15.998;2023-01-26T11:52:33;24.58;;;8.18;;
69937;SDS011;57248;47.320;15.998;2023-01-26T11:58:10;25.17;;;8.77;;
69937;SDS011;57248;47.320;15.998;2023-01-26T12:01:08;21.37;;;7.37;;
69937;SDS011;57248;47.320;15.998;2023-01-26T12:03:49;27.40;;;10.98;;
69937;SDS011;57248;47.320;15.998;2023-01-26T12:09:38;21.60;;;7.10;;
69937;SDS011;57248;47.320;15.998;2023-01-26T12:15:04;20.97;;;7.33;;
69937;SDS011;57248;47.320;15.998;2023-01-26T12:20:50;21.42;;;7.43;;
69937;SDS011;57248;47.320;15.998;2023-01-26T12:23:27;19.73;;;6.35;;
69937;SDS011;57248;47.320;15.998;2023-01-26T12:26:20;20.98;;;7.30;;
69937;SDS011;57248;47.320;15.998;2023-01-26T12:29:35;18.70;;;7.10;;
69937;SDS011;57248;47.320;15.998;2023-01-26T12:34:31;20.73;;;6.97;;
69937;SDS011;57248;47.320;15.998;2023-01-26T12:45:57;19.05;;;6.13;;
69937;SDS011;57248;47.320;15.998;2023-01-26T12:48:31;23.65;;;8.05;;
69937;SDS011;57248;47.320;15.998;2023-01-26T12:51:32;19.20;;;7.38;;
69937;SDS011;57248;47.320;15.998;2023-01-26T12:54:25;20.98;;;6.70;;
69937;SDS011;57248;47.320;15.998;2023-01-26T12:57:10;23.43;;;8.13;;
69937;SDS011;57248;47.320;15.998;2023-01-26T12:59:52;16.95;;;6.60;;
69937;SDS011;57248;47.320;15.998;2023-01-26T13:02:28;23.40;;;8.40;;
69937;SDS011;57248;47.320;15.998;2023-01-26T13:05:03;19.25;;;6.07;;
69937;SDS011;57248;47.320;15.998;2023-01-26T13:15:29;19.05;;;6.55;;
69937;SDS011;57248;47.320;15.998;2023-01-26T13:18:02;20.67;;;6.72;;
69937;SDS011;57248;47.320;15.998;2023-01-26T13:34:56;19.35;;;6.72;;
69937;SDS011;57248;47.320;15.998;2023-01-26T13:37:32;23.10;;;6.73;;
69937;SDS011;57248;47.320;15.998;2023-01-26T13:40:12;21.85;;;7.22;;
69937;SDS011;57248;47.320;15.998;2023-01-26T13:45:44;18.45;;;6.45;;
69937;SDS011;57248;47.320;15.998;2023-01-26T13:48:40;21.27;;;7.10;;
69937;SDS011;57248;47.320;15.998;2023-01-26T13:54:05;18.35;;;6.70;;
69937;SDS011;57248;47.320;15.998;2023-01-26T13:57:03;20.15;;;7.35;;
69937;SDS011;57248;47.320;15.998;2023-01-26T13:59:50;18.20;;;6.35;;
69937;SDS011;57248;47.320;15.998;2023-01-26T14:05:04;29.53;;;9.47;;
69937;SDS011;57248;47.320;15.998;2023-01-26T14:07:42;30.58;;;10.25;;
69937;SDS011;57248;47.320;15.998;2023-01-26T14:10:16;19.13;;;6.60;;
69937;SDS011;57248;47.320;15.998;2023-01-26T14:12:51;17.63;;;6.50;;
69937;SDS011;57248;47.320;15.998;2023-01-26T14:15:29;19.48;;;6.50;;
69937;SDS011;57248;47.320;15.998;2023-01-26T14:17:57;16.73;;;5.97;;
69937;SDS011;57248;47.320;15.998;2023-01-26T14:20:32;19.60;;;6.50;;
69937;SDS011;57248;47.320;15.998;2023-01-26T14:25:41;18.00;;;6.40;;
69937;SDS011;57248;47.320;15.998;2023-01-26T14:28:36;17.65;;;6.47;;
69937;SDS011;57248;47.320;15.998;2023-01-26T14:31:20;18.53;;;6.03;;
69937;SDS011;57248;47.320;15.998;2023-01-26T14:33:55;18.73;;;6.63;;
69937;SDS011;57248;47.320;15.998;2023-01-26T14:36:29;17.48;;;6.47;;
69937;SDS011;57248;47.320;15.998;2023-01-26T14:39:14;21.20;;;6.82;;
69937;SDS011;57248;47.320;15.998;2023-01-26T14:41:47;17.83;;;6.78;;
69937;SDS011;57248;47.320;15.998;2023-01-26T14:44:20;20.43;;;6.70;;
69937;SDS011;57248;47.320;15.998;2023-01-26T14:49:52;17.48;;;6.60;;
69937;SDS011;57248;47.320;15.998;2023-01-26T14:52:29;21.00;;;7.35;;
69937;SDS011;57248;47.320;15.998;2023-01-26T14:55:11;19.17;;;7.15;;
69937;SDS011;57248;47.320;15.998;2023-01-26T14:57:48;20.80;;;6.93;;
69937;SDS011;57248;47.320;15.998;2023-01-26T15:00:28;18.88;;;7.20;;
69937;SDS011;57248;47.320;15.998;2023-01-26T15:03:05;20.50;;;7.25;;
69937;SDS011;57248;47.320;15.998;2023-01-26T15:05:43;19.55;;;6.50;;
69937;SDS011;57248;47.320;15.998;2023-01-26T15:08:19;19.83;;;6.53;;
69937;SDS011;57248;47.320;15.998;2023-01-26T15:10:59;20.10;;;7.22;;
69937;SDS011;57248;47.320;15.998;2023-01-26T15:13:59;21.35;;;6.68;;
69937;SDS011;57248;47.320;15.998;2023-01-26T15:16:31;22.55;;;7.70;;
69937;SDS011;57248;47.320;15.998;2023-01-26T15:19:22;20.97;;;7.30;;
69937;SDS011;57248;47.320;15.998;2023-01-26T15:21:55;19.38;;;7.00;;
69937;SDS011;57248;47.320;15.998;2023-01-26T15:24:27;19.27;;;6.75;;
69937;SDS011;57248;47.320;15.998;2023-01-26T15:27:05;19.80;;;7.32;;
69937;SDS011;57248;47.320;15.998;2023-01-26T15:29:38;18.52;;;6.40;;
69937;SDS011;57248;47.320;15.998;2023-01-26T15:32:24;18.30;;;6.80;;
69937;SDS011;57248;47.320;15.998;2023-01-26T15:35:06;22.60;;;7.30;;
69937;SDS011;57248;47.320;15.998;2023-01-26T15:37:39;18.45;;;6.53;;
69937;SDS011;57248;47.320;15.998;2023-01-26T15:40:11;20.23;;;7.18;;
69937;SDS011;57248;47.320;15.998;2023-01-26T15:42:44;20.15;;;6.88;;
69937;SDS011;57248;47.320;15.998;2023-01-26T15:45:21;21.37;;;6.50;;
69937;SDS011;57248;47.320;15.998;2023-01-26T15:47:55;19.98;;;7.05;;
69937;SDS011;57248;47.320;15.998;2023-01-26T15:50:20;21.40;;;7.20;;
69937;SDS011;57248;47.320;15.998;2023-01-26T15:52:52;22.13;;;7.35;;
69937;SDS011;57248;47.320;15.998;2023-01-26T15:55:27;22.17;;;8.20;;
69937;SDS011;57248;47.320;15.998;2023-01-26T15:58:09;26.95;;;9.48;;
69937;SDS011;57248;47.320;15.998;2023-01-26T16:00:41;24.52;;;9.35;;
69937;SDS011;57248;47.320;15.998;2023-01-26T16:03:17;23.87;;;9.27;;
69937;SDS011;57248;47.320;15.998;2023-01-26T16:05:52;24.45;;;8.95;;
69937;SDS011;57248;47.320;15.998;2023-01-26T16:08:24;33.08;;;10.55;;
69937;SDS011;57248;47.320;15.998;2023-01-26T16:10:56;33.15;;;11.00;;
69937;SDS011;57248;47.320;15.998;2023-01-26T16:13:28;23.75;;;9.13;;
69937;SDS011;57248;47.320;15.998;2023-01-26T16:16:00;25.73;;;8.37;;
69937;SDS011;57248;47.320;15.998;2023-01-26T16:18:25;25.35;;;8.95;;
69937;SDS011;57248;47.320;15.998;2023-01-26T16:20:57;24.60;;;8.77;;
69937;SDS011;57248;47.320;15.998;2023-01-26T16:23:30;26.35;;;8.98;;
69937;SDS011;57248;47.320;15.998;2023-01-26T16:26:02;29.45;;;10.10;;
69937;SDS011;57248;47.320;15.998;2023-01-26T16:28:35;32.22;;;10.10;;
69937;SDS011;57248;47.320;15.998;2023-01-26T16:31:17;25.92;;;8.73;;
69937;SDS011;57248;47.320;15.998;2023-01-26T16:33:52;22.03;;;7.80;;
69937;SDS011;57248;47.320;15.998;2023-01-26T16:36:25;26.33;;;9.30;;
69937;SDS011;57248;47.320;15.998;2023-01-26T16:39:05;24.70;;;7.88;;
69937;SDS011;57248;47.320;15.998;2023-01-26T16:41:37;25.70;;;8.95;;
69937;SDS011;57248;47.320;15.998;2023-01-26T16:44:11;27.50;;;9.10;;
69937;SDS011;57248;47.320;15.998;2023-01-26T16:46:45;24.50;;;8.43;;
69937;SDS011;57248;47.320;15.998;2023-01-26T16:49:17;26.10;;;9.10;;
69937;SDS011;57248;47.320;15.998;2023-01-26T16:51:50;70.55;;;25.38;;
69937;SDS011;57248;47.320;15.998;2023-01-26T16:54:22;39.53;;;13.93;;